createdAt,value
2022-11-20T00:00:57.541Z,16.93
2022-11-20T00:03:27.115Z,14.30
2022-11-20T00:05:54.998Z,16.57
2022-11-20T00:08:22.868Z,12.93
2022-11-20T00:10:50.742Z,14.63
2022-11-20T00:13:18.637Z,12.57
2022-11-20T00:15:46.547Z,12.47
2022-11-20T00:18:14.468Z,12.70
2022-11-20T00:20:43.730Z,14.63
2022-11-20T00:23:11.600Z,12.13
2022-11-20T00:25:39.484Z,14.77
2022-11-20T00:28:07.373Z,12.87
2022-11-20T00:30:35.306Z,10.73
2022-11-20T00:33:03.209Z,11.37
2022-11-20T00:35:31.660Z,15.17
2022-11-20T00:38:00.888Z,13.33
2022-11-20T00:40:28.800Z,13.10
2022-11-20T00:42:56.677Z,13.03
2022-11-20T00:45:24.579Z,13.87
2022-11-20T00:47:52.434Z,14.10
2022-11-20T00:50:20.299Z,14.00
2022-11-20T00:52:48.148Z,13.43
2022-11-20T00:55:17.545Z,15.23
2022-11-20T00:57:45.448Z,11.60
2022-11-20T01:00:13.625Z,14.73
2022-11-20T01:02:41.724Z,14.03
2022-11-20T01:05:09.850Z,13.97
2022-11-20T01:07:38.049Z,13.37
2022-11-20T01:10:07.048Z,14.33
2022-11-20T01:12:36.352Z,12.80
2022-11-20T01:15:04.475Z,13.50
2022-11-20T01:17:33.616Z,13.33
2022-11-20T01:20:01.530Z,12.43
2022-11-20T01:22:29.396Z,13.50
2022-11-20T01:24:57.264Z,14.13
2022-11-20T01:27:25.096Z,12.13
2022-11-20T01:29:58.298Z,15.87
2022-11-20T01:32:28.940Z,14.07
2022-11-20T01:34:56.808Z,14.17
2022-11-20T01:37:24.668Z,15.03
2022-11-20T01:39:52.536Z,16.30
2022-11-20T01:42:37.788Z,16.10
2022-11-20T01:45:44.233Z,13.30
2022-11-20T01:48:13.485Z,15.70
2022-11-20T01:50:43.875Z,14.83
2022-11-20T01:53:16.708Z,13.80
2022-11-20T01:55:48.643Z,16.07
2022-11-20T01:58:17.560Z,15.33
2022-11-20T02:00:45.500Z,15.37
2022-11-20T02:03:17.811Z,14.57
2022-11-20T02:05:49.823Z,14.67
2022-11-20T02:08:18.120Z,14.93
2022-11-20T02:10:45.954Z,13.37
2022-11-20T02:13:31.260Z,15.40
2022-11-20T02:15:59.281Z,13.40
2022-11-20T02:18:28.685Z,14.60
2022-11-20T02:21:05.968Z,16.07
2022-11-20T02:23:39.703Z,14.23
2022-11-20T02:26:13.740Z,15.77
2022-11-20T02:28:41.676Z,14.80
2022-11-20T02:31:09.740Z,15.60
2022-11-20T02:33:37.516Z,15.87
2022-11-20T02:36:06.151Z,15.37
2022-11-20T02:38:33.991Z,15.53
2022-11-20T02:41:01.752Z,16.93
2022-11-20T02:43:30.891Z,15.97
2022-11-20T02:45:58.707Z,14.47
2022-11-20T02:48:29.095Z,14.03
2022-11-20T02:50:59.138Z,16.33
2022-11-20T02:53:26.931Z,14.77
2022-11-20T02:55:54.690Z,15.30
2022-11-20T02:58:22.442Z,15.17
2022-11-20T03:00:51.641Z,17.70
2022-11-20T03:03:19.455Z,15.30
2022-11-20T03:05:47.227Z,14.57
2022-11-20T03:08:15.004Z,17.17
2022-11-20T03:10:42.780Z,14.57
2022-11-20T03:13:10.558Z,15.53
2022-11-20T03:15:38.718Z,14.67
2022-11-20T03:18:08.069Z,14.97
2022-11-20T03:20:36.300Z,15.90
2022-11-20T03:23:04.629Z,14.30
2022-11-20T03:25:32.640Z,16.63
2022-11-20T03:28:00.415Z,13.93
2022-11-20T03:30:30.729Z,15.03
2022-11-20T03:32:58.886Z,17.43
2022-11-20T03:35:28.015Z,16.90
2022-11-20T03:37:55.772Z,16.33
2022-11-20T03:40:23.583Z,17.00
2022-11-20T03:42:51.387Z,19.37
2022-11-20T03:45:20.216Z,15.70
2022-11-20T03:47:48.135Z,16.37
2022-11-20T03:50:16.469Z,16.03
2022-11-20T03:52:45.629Z,17.53
2022-11-20T03:55:13.407Z,16.43
2022-11-20T03:57:41.237Z,14.60
2022-11-20T04:00:09.916Z,18.50
2022-11-20T04:02:37.738Z,18.07
2022-11-20T04:05:06.003Z,16.93
2022-11-20T04:07:36.063Z,18.37
2022-11-20T04:10:05.869Z,17.97
2022-11-20T04:12:35.238Z,18.63
2022-11-20T04:15:03.171Z,16.93
2022-11-20T04:17:30.954Z,17.43
2022-11-20T04:19:58.742Z,17.80
2022-11-20T04:22:26.667Z,15.50
2022-11-20T04:24:54.440Z,18.20
2022-11-20T04:27:23.544Z,15.43
2022-11-20T04:29:51.311Z,20.67
2022-11-20T04:32:19.123Z,17.33
2022-11-20T04:34:46.879Z,18.93
2022-11-20T04:37:14.681Z,20.30
2022-11-20T04:39:42.568Z,19.37
2022-11-20T04:42:28.939Z,18.67
2022-11-20T04:44:58.912Z,18.90
2022-11-20T04:47:26.899Z,21.10
2022-11-20T04:49:54.751Z,20.60
2022-11-20T04:52:22.591Z,19.63
2022-11-20T04:54:53.563Z,19.20
2022-11-20T04:57:21.659Z,20.20
2022-11-20T04:59:49.444Z,18.43
2022-11-20T05:02:18.800Z,21.67
2022-11-20T05:04:46.576Z,19.83
2022-11-20T05:07:14.452Z,18.00
2022-11-20T05:09:42.323Z,17.93
2022-11-20T05:12:10.780Z,17.50
2022-11-20T05:14:38.533Z,20.10
2022-11-20T05:17:06.441Z,22.43
2022-11-20T05:19:35.530Z,20.07
2022-11-20T05:22:03.296Z,16.33
2022-11-20T05:24:31.032Z,20.10
2022-11-20T05:26:58.768Z,17.27
2022-11-20T05:29:26.560Z,15.50
2022-11-20T05:31:54.324Z,20.73
2022-11-20T05:34:22.087Z,15.07
2022-11-20T05:36:51.213Z,18.53
2022-11-20T05:39:19.202Z,17.97
2022-11-20T05:41:47.342Z,18.77
2022-11-20T05:44:15.276Z,18.60
2022-11-20T05:46:43.059Z,17.53
2022-11-20T05:49:10.965Z,17.63
2022-11-20T05:51:38.722Z,17.27
2022-11-20T05:54:07.859Z,18.33
2022-11-20T05:56:36.224Z,17.47
2022-11-20T05:59:07.330Z,16.83
2022-11-20T06:01:36.808Z,17.30
2022-11-20T06:04:04.685Z,17.53
2022-11-20T06:06:32.479Z,16.87
2022-11-20T06:09:00.701Z,20.60
2022-11-20T06:11:29.845Z,17.30
2022-11-20T06:13:57.587Z,14.67
2022-11-20T06:16:25.440Z,17.07
2022-11-20T06:18:53.227Z,17.43
2022-11-20T06:21:22.765Z,18.23
2022-11-20T06:23:51.861Z,16.87
2022-11-20T06:26:21.595Z,14.13
2022-11-20T06:28:51.194Z,17.23
2022-11-20T06:31:21.082Z,14.50
2022-11-20T06:33:49.919Z,16.13
2022-11-20T06:36:19.320Z,18.60
2022-11-20T06:38:47.105Z,17.80
2022-11-20T06:41:17.545Z,19.57
2022-11-20T06:43:45.620Z,17.67
2022-11-20T06:46:18.352Z,17.33
2022-11-20T06:48:46.416Z,17.20
2022-11-20T06:51:14.567Z,18.33
2022-11-20T06:53:42.418Z,19.67
2022-11-20T06:56:10.382Z,17.83
2022-11-20T06:58:38.518Z,18.20
2022-11-20T07:01:08.141Z,16.13
2022-11-20T07:03:37.748Z,18.63
2022-11-20T07:06:06.527Z,17.53
2022-11-20T07:08:34.713Z,17.30
2022-11-20T07:11:03.768Z,16.87
2022-11-20T07:13:32.450Z,16.37
2022-11-20T07:16:01.753Z,17.27
2022-11-20T07:18:29.541Z,15.03
2022-11-20T07:21:01.592Z,14.90
2022-11-20T07:23:29.482Z,19.30
2022-11-20T07:25:57.250Z,14.97
2022-11-20T07:28:25.081Z,15.00
2022-11-20T07:30:53.298Z,16.73
2022-11-20T07:33:21.540Z,17.80
2022-11-20T07:35:49.370Z,16.10
2022-11-20T07:38:18.635Z,17.40
2022-11-20T07:40:46.457Z,16.63
2022-11-20T07:43:14.265Z,17.77
2022-11-20T07:45:42.054Z,17.73
2022-11-20T07:48:09.850Z,17.63
2022-11-20T07:50:37.652Z,16.60
2022-11-20T07:53:06.686Z,18.47
2022-11-20T07:55:35.852Z,19.23
2022-11-20T07:58:03.616Z,16.27
2022-11-20T08:00:31.553Z,18.97
2022-11-20T08:02:59.569Z,18.20
2022-11-20T08:05:27.325Z,20.27
2022-11-20T08:07:55.110Z,18.03
2022-11-20T08:10:22.887Z,16.93
2022-11-20T08:13:10.788Z,16.47
2022-11-20T08:15:40.382Z,17.20
2022-11-20T08:20:57.457Z,16.37
2022-11-20T08:23:25.588Z,16.07
2022-11-20T08:25:53.556Z,15.33
2022-11-20T08:28:22.768Z,16.73
2022-11-20T08:30:50.769Z,16.77
2022-11-20T08:33:19.337Z,18.03
2022-11-20T08:35:47.316Z,16.83
2022-11-20T08:38:15.077Z,21.10
2022-11-20T08:41:02.851Z,17.97
2022-11-20T08:43:31.978Z,16.90
2022-11-20T08:46:00.031Z,17.37
2022-11-20T08:48:27.833Z,17.70
2022-11-20T08:50:55.611Z,16.00
2022-11-20T08:53:23.361Z,17.13
2022-11-20T08:55:51.155Z,17.50
2022-11-20T08:58:18.935Z,18.87
2022-11-20T09:00:48.105Z,18.60
2022-11-20T09:03:15.995Z,17.63
2022-11-20T09:05:44.137Z,19.63
2022-11-20T09:08:11.914Z,17.00
2022-11-20T09:10:40.562Z,19.00
2022-11-20T09:13:08.551Z,16.60
2022-11-20T09:15:36.441Z,17.67
2022-11-20T09:18:05.893Z,21.27
2022-11-20T09:20:33.924Z,19.30
2022-11-20T09:23:01.719Z,15.80
2022-11-20T09:25:29.496Z,22.10
2022-11-20T09:27:58.167Z,18.63
2022-11-20T09:30:26.640Z,18.00
2022-11-20T09:32:54.637Z,18.97
2022-11-20T09:35:23.746Z,18.17
2022-11-20T09:37:51.859Z,18.10
2022-11-20T09:40:22.422Z,18.43
2022-11-20T09:42:56.189Z,16.53
2022-11-20T09:45:39.965Z,18.20
2022-11-20T09:48:38.968Z,16.63
2022-11-20T09:51:17.640Z,17.03
2022-11-20T09:54:01.903Z,18.90
2022-11-20T09:56:30.735Z,21.30
2022-11-20T09:59:04.076Z,19.03
2022-11-20T10:01:35.944Z,19.03
2022-11-20T10:04:07.958Z,17.13
2022-11-20T10:06:49.347Z,18.00
2022-11-20T10:09:31.834Z,16.50
2022-11-20T10:12:14.064Z,18.67
2022-11-20T10:14:55.221Z,14.50
2022-11-20T10:17:35.779Z,16.47
2022-11-20T10:20:20.182Z,18.23
2022-11-20T10:23:03.548Z,16.97
2022-11-20T10:25:40.499Z,13.87
2022-11-20T10:28:41.389Z,13.53
2022-11-20T10:31:14.465Z,14.90
2022-11-20T10:34:13.528Z,14.63
2022-11-20T10:36:40.684Z,13.90
2022-11-20T10:39:21.104Z,12.17
2022-11-20T10:41:53.679Z,11.87
2022-11-20T10:44:37.619Z,12.27
2022-11-20T10:47:06.751Z,12.20
2022-11-20T10:49:35.543Z,14.27
2022-11-20T10:52:11.108Z,12.90
2022-11-20T10:54:49.473Z,12.03
2022-11-20T10:57:27.293Z,13.73
2022-11-20T11:00:05.323Z,14.07
2022-11-20T11:02:43.759Z,13.20
2022-11-20T11:05:27.811Z,12.93
2022-11-20T11:07:58.260Z,11.63
2022-11-20T11:10:34.883Z,11.77
2022-11-20T11:13:03.039Z,14.73
2022-11-20T11:15:39.022Z,23.33
2022-11-20T11:18:10.107Z,26.93
2022-11-20T11:20:38.217Z,17.80
2022-11-20T11:23:24.144Z,14.47
2022-11-20T11:26:00.481Z,12.40
2022-11-20T11:28:28.847Z,13.23
2022-11-20T11:30:57.022Z,11.60
2022-11-20T11:33:26.213Z,10.87
2022-11-20T11:35:57.910Z,12.80
2022-11-20T11:38:32.643Z,11.60
2022-11-20T11:41:03.074Z,11.03
2022-11-20T11:43:51.502Z,12.00
2022-11-20T11:46:29.165Z,12.63
2022-11-20T11:49:01.590Z,10.00
2022-11-20T11:51:37.268Z,10.53
2022-11-20T11:54:25.475Z,10.53
2022-11-20T11:56:55.607Z,8.17
2022-11-20T11:59:28.798Z,9.17
2022-11-20T12:02:01.582Z,8.17
2022-11-20T12:04:44.120Z,7.70
2022-11-20T12:07:44.868Z,8.23
2022-11-20T12:10:05.266Z,6.70
2022-11-20T12:12:41.372Z,6.07
2022-11-20T12:15:12.520Z,6.43
2022-11-20T12:17:40.327Z,5.60
2022-11-20T12:20:14.940Z,5.93
2022-11-20T12:22:52.367Z,5.90
2022-11-20T12:25:24.164Z,6.13
2022-11-20T12:28:06.986Z,7.17
2022-11-20T12:30:39.039Z,6.57
2022-11-20T12:33:22.841Z,6.40
2022-11-20T12:36:02.846Z,5.97
2022-11-20T12:39:13.343Z,4.87
2022-11-20T12:42:23.346Z,8.73
2022-11-20T12:45:26.550Z,4.73
2022-11-20T12:48:23.886Z,6.00
2022-11-20T12:51:19.849Z,5.03
2022-11-20T12:53:57.646Z,5.30
2022-11-20T12:56:35.333Z,4.27
2022-11-20T12:59:14.759Z,3.90
2022-11-20T13:01:55.379Z,4.70
2022-11-20T13:04:45.849Z,3.80
2022-11-20T13:07:16.202Z,4.13
2022-11-20T13:09:47.857Z,6.43
2022-11-20T13:12:21.720Z,7.37
2022-11-20T13:14:56.085Z,7.70
2022-11-20T13:17:32.734Z,8.30
2022-11-20T13:20:01.121Z,7.20
2022-11-20T13:22:30.621Z,7.27
2022-11-20T13:24:58.406Z,7.13
2022-11-20T13:27:26.286Z,6.93
2022-11-20T13:30:15.608Z,7.53
2022-11-20T13:32:53.873Z,6.23
2022-11-20T13:35:30.402Z,6.10
2022-11-20T13:38:03.250Z,6.90
2022-11-20T13:40:31.076Z,7.60
2022-11-20T13:43:09.212Z,10.67
2022-11-20T13:45:37.013Z,8.37
2022-11-20T13:48:20.426Z,7.33
2022-11-20T13:50:57.943Z,8.60
2022-11-20T13:54:13.237Z,8.17
2022-11-20T13:56:52.358Z,8.30
2022-11-20T13:59:38.399Z,10.53
2022-11-20T14:02:13.533Z,7.20
2022-11-20T14:04:47.020Z,8.77
2022-11-20T14:07:15.512Z,6.20
2022-11-20T14:09:52.624Z,7.00
2022-11-20T14:12:24.436Z,7.07
2022-11-20T14:14:54.242Z,7.63
2022-11-20T14:17:23.711Z,8.73
2022-11-20T14:19:54.535Z,7.50
2022-11-20T14:22:24.192Z,6.20
2022-11-20T14:25:05.751Z,8.07
2022-11-20T14:27:37.853Z,7.93
2022-11-20T14:30:06.788Z,7.03
2022-11-20T14:32:37.844Z,8.27
2022-11-20T14:35:11.404Z,7.80
2022-11-20T14:37:41.404Z,8.77
2022-11-20T14:40:26.389Z,8.13
2022-11-20T14:42:57.807Z,8.77
2022-11-20T14:45:26.660Z,11.80
2022-11-20T14:47:57.208Z,10.43
2022-11-20T14:50:28.434Z,8.47
2022-11-20T14:52:57.717Z,11.27
2022-11-20T14:55:33.875Z,9.63
2022-11-20T14:58:03.342Z,11.07
2022-11-20T15:00:33.060Z,10.67
2022-11-20T15:03:00.869Z,10.60
2022-11-20T15:05:47.658Z,10.27
2022-11-20T15:08:16.607Z,8.67
2022-11-20T15:10:49.256Z,7.87
2022-11-20T15:13:22.675Z,7.87
2022-11-20T15:15:51.872Z,8.80
2022-11-20T15:18:22.995Z,8.67
2022-11-20T15:20:52.892Z,8.90
2022-11-20T15:23:21.342Z,11.70
2022-11-20T15:25:50.307Z,10.00
2022-11-20T15:28:22.868Z,9.00
2022-11-20T15:30:51.604Z,9.57
2022-11-20T15:33:21.037Z,10.93
2022-11-20T15:35:48.843Z,12.47
2022-11-20T15:38:17.977Z,11.87
2022-11-20T15:40:45.764Z,14.90
2022-11-20T15:43:14.083Z,12.93
2022-11-20T15:45:45.713Z,11.27
2022-11-20T15:48:16.077Z,10.33
2022-11-20T15:50:52.698Z,12.17
2022-11-20T15:53:21.856Z,12.37
2022-11-20T15:55:49.688Z,11.17
2022-11-20T15:58:18.158Z,11.63
2022-11-20T16:00:46.351Z,10.73
2022-11-20T16:03:14.518Z,8.90
2022-11-20T16:05:42.407Z,9.73
2022-11-20T16:08:11.918Z,13.17
2022-11-20T16:10:41.816Z,11.20
2022-11-20T16:13:32.621Z,9.00
2022-11-20T16:16:03.103Z,16.00
2022-11-20T16:18:30.855Z,15.47
2022-11-20T16:20:58.740Z,15.47
2022-11-20T16:23:26.539Z,16.23
2022-11-20T16:25:55.676Z,18.17
2022-11-20T16:28:23.649Z,16.40
2022-11-20T16:30:51.424Z,14.07
2022-11-20T16:33:19.801Z,13.87
2022-11-20T16:35:47.600Z,12.97
2022-11-20T16:38:15.402Z,9.73
2022-11-20T16:40:43.186Z,9.50
2022-11-20T16:43:15.590Z,8.37
2022-11-20T16:45:44.885Z,7.87
2022-11-20T16:48:17.026Z,9.47
2022-11-20T16:50:48.561Z,8.37
2022-11-20T16:53:16.387Z,8.63
2022-11-20T16:55:44.175Z,8.00
2022-11-20T16:58:13.343Z,10.80
2022-11-20T17:00:45.581Z,9.83
2022-11-20T17:03:17.667Z,12.17
2022-11-20T17:05:45.456Z,9.97
2022-11-20T17:08:13.228Z,10.67
2022-11-20T17:10:41.003Z,11.77
2022-11-20T17:13:09.180Z,9.77
2022-11-20T17:15:38.375Z,10.17
2022-11-20T17:18:06.244Z,8.37
2022-11-20T17:20:34.018Z,8.20
2022-11-20T17:23:01.779Z,8.20
2022-11-20T17:25:29.552Z,7.37
2022-11-20T17:27:57.307Z,7.53
2022-11-20T17:30:25.061Z,9.80
2022-11-20T17:32:54.150Z,9.50
2022-11-20T17:35:21.925Z,10.83
2022-11-20T17:37:49.704Z,11.77
2022-11-20T17:40:17.651Z,9.00
2022-11-20T17:42:45.407Z,11.90
2022-11-20T17:45:13.198Z,8.67
2022-11-20T17:47:42.036Z,9.13
2022-11-20T17:50:11.582Z,7.43
2022-11-20T17:52:39.384Z,8.13
2022-11-20T17:55:08.284Z,8.47
2022-11-20T17:57:53.385Z,10.17
2022-11-20T18:00:22.149Z,9.90
2022-11-20T18:02:50.251Z,10.37
2022-11-20T18:05:19.462Z,7.80
2022-11-20T18:07:47.314Z,9.53
2022-11-20T18:10:15.221Z,8.57
2022-11-20T18:12:43.807Z,11.23
2022-11-20T18:15:11.625Z,11.80
2022-11-20T18:17:39.432Z,9.37
2022-11-20T18:22:58.411Z,11.30
2022-11-20T18:25:26.226Z,11.23
2022-11-20T18:27:54.005Z,10.83
2022-11-20T18:30:21.954Z,9.37
2022-11-20T18:32:49.986Z,10.07
2022-11-20T18:35:17.973Z,9.87
2022-11-20T18:37:45.736Z,12.60
2022-11-20T18:40:15.445Z,9.13
2022-11-20T18:43:00.689Z,8.97
2022-11-20T18:45:30.204Z,8.37
2022-11-20T18:47:58.042Z,8.83
2022-11-20T18:50:25.945Z,8.10
2022-11-20T18:52:53.933Z,9.03
2022-11-20T18:55:25.009Z,10.00
2022-11-20T18:57:53.929Z,10.40
2022-11-20T19:00:22.060Z,10.57
2022-11-20T19:02:53.300Z,10.20
2022-11-20T19:05:21.346Z,11.43
2022-11-20T19:07:49.358Z,10.80
2022-11-20T19:10:20.208Z,11.23
2022-11-20T19:12:49.700Z,11.47
2022-11-20T19:15:17.894Z,12.47
2022-11-20T19:17:45.850Z,12.43
2022-11-20T19:20:14.124Z,12.37
2022-11-20T19:22:42.107Z,12.03
2022-11-20T19:25:10.568Z,9.23
2022-11-20T19:27:39.044Z,10.27
2022-11-20T19:30:09.960Z,11.43
2022-11-20T19:32:38.578Z,9.80
2022-11-20T19:35:07.480Z,9.03
2022-11-20T19:37:35.647Z,9.93
2022-11-20T19:40:05.427Z,9.60
2022-11-20T19:42:34.026Z,8.63
2022-11-20T19:45:02.497Z,6.97
2022-11-20T19:48:00.637Z,6.47
2022-11-20T19:50:21.070Z,7.87
2022-11-20T19:52:52.044Z,5.70
2022-11-20T19:55:24.400Z,6.10
2022-11-20T19:57:52.878Z,9.00
2022-11-20T20:00:29.655Z,7.07
2022-11-20T20:03:02.706Z,7.30
2022-11-20T20:05:31.228Z,7.50
2022-11-20T20:07:59.744Z,7.73
2022-11-20T20:10:29.176Z,10.43
2022-11-20T20:12:57.732Z,7.20
2022-11-20T20:15:26.309Z,6.20
2022-11-20T20:17:55.129Z,6.60
2022-11-20T20:20:25.175Z,7.33
2022-11-20T20:22:53.651Z,6.80
2022-11-20T20:25:21.960Z,7.43
2022-11-20T20:27:50.499Z,7.80
2022-11-20T20:30:18.863Z,7.03
2022-11-20T20:32:48.860Z,5.67
2022-11-20T20:35:18.892Z,6.83
2022-11-20T20:37:48.526Z,6.63
2022-11-20T20:40:16.839Z,6.53
2022-11-20T20:42:44.812Z,5.37
2022-11-20T20:45:13.143Z,6.63
2022-11-20T20:47:42.334Z,5.97
2022-11-20T20:50:12.988Z,7.00
2022-11-20T20:52:41.433Z,6.10
2022-11-20T20:55:11.748Z,6.77
2022-11-20T20:57:39.689Z,5.77
2022-11-20T21:00:10.196Z,7.43
2022-11-20T21:02:38.102Z,6.70
2022-11-20T21:05:06.817Z,6.20
2022-11-20T21:07:34.785Z,6.37
2022-11-20T21:10:02.679Z,5.83
2022-11-20T21:12:31.839Z,4.83
2022-11-20T21:14:59.659Z,5.70
2022-11-20T21:17:27.990Z,5.60
2022-11-20T21:19:55.788Z,4.43
2022-11-20T21:22:22.584Z,4.30
2022-11-20T21:24:50.365Z,4.33
2022-11-20T21:27:18.127Z,4.17
2022-11-20T21:29:47.235Z,5.17
2022-11-20T21:32:15.022Z,5.20
2022-11-20T21:34:42.800Z,3.70
2022-11-20T21:37:10.585Z,4.90
2022-11-20T21:39:50.430Z,3.37
2022-11-20T21:42:18.396Z,4.03
2022-11-20T21:44:48.433Z,3.67
2022-11-20T21:47:16.260Z,3.67
2022-11-20T21:49:44.021Z,4.00
2022-11-20T21:52:11.818Z,3.90
2022-11-20T21:54:39.582Z,2.77
2022-11-20T21:57:07.384Z,3.50
2022-11-20T21:59:35.223Z,2.87
2022-11-20T22:02:04.582Z,2.60
2022-11-20T22:04:32.691Z,1.90
2022-11-20T22:07:00.594Z,1.83
2022-11-20T22:09:28.401Z,1.60
2022-11-20T22:11:56.195Z,2.40
2022-11-20T22:14:24.033Z,3.87
2022-11-20T22:16:53.784Z,2.00
2022-11-20T22:19:24.039Z,1.90
2022-11-20T22:21:52.090Z,2.00
2022-11-20T22:24:21.649Z,2.23
2022-11-20T22:26:50.023Z,3.70
2022-11-20T22:29:19.391Z,2.00
2022-11-20T22:31:47.685Z,1.97
2022-11-20T22:34:15.835Z,2.57
2022-11-20T22:36:45.473Z,1.90
2022-11-20T22:39:13.279Z,2.50
2022-11-20T22:41:41.029Z,1.90
2022-11-20T22:44:09.311Z,2.13
2022-11-20T22:46:38.660Z,1.60
2022-11-20T22:49:08.281Z,4.93
2022-11-20T22:51:38.202Z,1.60
2022-11-20T22:54:07.772Z,3.57
2022-11-20T22:56:35.647Z,1.57
2022-11-20T22:59:03.730Z,1.60
2022-11-20T23:01:33.332Z,1.77
2022-11-20T23:04:03.530Z,1.70
2022-11-20T23:06:33.971Z,1.50
2022-11-20T23:09:01.951Z,1.57
2022-11-20T23:11:32.512Z,1.63
2022-11-20T23:14:02.033Z,2.40
2022-11-20T23:16:31.780Z,1.83
2022-11-20T23:19:01.281Z,1.27
2022-11-20T23:21:29.483Z,1.30
2022-11-20T23:23:58.766Z,2.40
2022-11-20T23:26:28.427Z,1.80
2022-11-20T23:28:58.750Z,1.47
2022-11-20T23:31:27.512Z,1.80
2022-11-20T23:33:55.420Z,1.93
2022-11-20T23:36:23.251Z,2.00
2022-11-20T23:38:51.162Z,1.57
2022-11-20T23:41:19.123Z,1.53
2022-11-20T23:43:46.904Z,1.30
2022-11-20T23:46:16.932Z,2.03
2022-11-20T23:48:45.805Z,1.37
2022-11-20T23:51:14.230Z,1.50
2022-11-20T23:53:42.263Z,1.07
2022-11-20T23:56:10.045Z,1.63
2022-11-20T23:58:39.536Z,1.20
